Nisku, Canada
Current Conditions -  °F | °C
As of 8:00 PM on Monday 20 Oct 2014 (Local Time) from CYEG Reporting Station
Broken Clouds Broken Clouds  
Wind Chill: 50°   Ceiling: 27000
Heat Index: 50°   Visibility: 15mi
Dew Point: 37°   Wind: 9mph
Humidity: 62%   Direction: 130°SE
Pressure: 29.49"   Gusts: NA
Location:  53.33°N, 113.53°W
Report Text: CYEG 210200Z 13008KT 15SM FEW080 BKN270 10/03 A2949 RMK AC1CI5 AC TR SLP008 DENSITY ALT 2800FT
Loading
Personal Weather Stations






























Interactive Weather Map
Tropical Storm Tracking
New forecast layout! Learn more

10-Day Weather Forecast

Advertisements
Track Severe Weather on mobile